Houston, Canada
Current Conditions -  °F | °C
As of 6:35 AM on Saturday 25 Oct 2014 (Local Time) from CYYD Reporting Station
Haze Haze  
Wind Chill: 30°   Ceiling: 7000
Heat Index: 30°   Visibility: 4mi
Dew Point: 30°   Wind: 2mph
Humidity: 100%   Direction: 150°SSE
Pressure: 29.77"   Gusts: NA
Location:  54.4°N, 126.65°W
Report Text: CYYD 251335Z AUTO 15002KT 4SM BR BKN070 M01/M01 A2977 RMK SLP099
Loading
Personal Weather Stations






























Interactive Weather Map
Tropical Storm Tracking
New forecast layout! Learn more

10-Day Weather Forecast

Advertisements
Track Severe Weather on mobile